createdAt,value
2019-04-07T00:00:51.947Z,10.84
2019-04-07T00:01:51.541Z,10.88
2019-04-07T00:02:51.980Z,10.88
2019-04-07T00:03:51.656Z,10.88
2019-04-07T00:04:51.403Z,10.86
2019-04-07T00:05:51.629Z,10.89
2019-04-07T00:06:51.329Z,10.86
2019-04-07T00:07:51.266Z,10.96
2019-04-07T00:08:52.214Z,10.96
2019-04-07T00:09:51.365Z,10.99
2019-04-07T00:10:51.688Z,11.03
2019-04-07T00:11:51.960Z,11.02
2019-04-07T00:12:51.051Z,11.07
2019-04-07T00:13:51.670Z,11.00
2019-04-07T00:14:51.423Z,11.00
2019-04-07T00:15:51.185Z,10.96
2019-04-07T00:16:50.894Z,11.10
2019-04-07T00:17:50.837Z,11.07
2019-04-07T00:18:50.813Z,11.04
2019-04-07T00:19:50.815Z,11.09
2019-04-07T00:20:50.771Z,11.03
2019-04-07T00:21:50.691Z,11.07
2019-04-07T00:22:51.041Z,11.07
2019-04-07T00:23:50.756Z,11.06
2019-04-07T00:24:50.575Z,11.09
2019-04-07T00:25:50.940Z,11.17
2019-04-07T00:26:50.527Z,11.17
2019-04-07T00:27:50.421Z,11.15
2019-04-07T00:28:50.385Z,11.07
2019-04-07T00:29:50.862Z,11.17
2019-04-07T00:30:50.330Z,11.19
2019-04-07T00:31:50.277Z,11.15
2019-04-07T00:32:50.299Z,11.11
2019-04-07T00:33:50.175Z,11.11
2019-04-07T00:34:50.173Z,11.10
2019-04-07T00:35:50.117Z,11.18
2019-04-07T00:36:50.585Z,11.07
2019-04-07T00:37:50.023Z,11.22
2019-04-07T00:38:50.410Z,11.19
2019-04-07T00:39:49.992Z,11.22
2019-04-07T00:40:50.295Z,11.25
2019-04-07T00:41:49.871Z,11.35
2019-04-07T00:42:50.172Z,11.32
2019-04-07T00:43:49.774Z,11.35
2019-04-07T00:44:49.754Z,11.40
2019-04-07T00:45:50.300Z,11.43
2019-04-07T00:46:49.931Z,11.43
2019-04-07T00:47:49.659Z,11.40
2019-04-07T00:48:49.563Z,11.35
2019-04-07T00:49:50.121Z,11.43
2019-04-07T00:50:50.221Z,11.43
2019-04-07T00:51:49.723Z,11.40
2019-04-07T00:52:49.472Z,11.51
2019-04-07T00:53:49.763Z,11.44
2019-04-07T00:54:49.332Z,11.47
2019-04-07T00:55:49.665Z,11.51
2019-04-07T00:56:49.232Z,11.61
2019-04-07T00:57:49.217Z,11.55
2019-04-07T00:58:49.918Z,11.47
2019-04-07T00:59:49.149Z,11.55
2019-04-07T01:00:49.090Z,11.54
2019-04-07T01:01:49.029Z,11.51
2019-04-07T01:02:48.990Z,11.51
2019-04-07T01:03:49.095Z,11.51
2019-04-07T01:04:49.694Z,11.36
2019-04-07T01:05:48.897Z,11.37
2019-04-07T01:06:49.424Z,11.35
2019-04-07T01:07:48.820Z,11.37
2019-04-07T01:08:49.100Z,11.37
2019-04-07T01:09:48.699Z,11.36
2019-04-07T01:10:49.080Z,11.36
2019-04-07T01:11:48.644Z,11.36
2019-04-07T01:12:48.907Z,11.29
2019-04-07T01:13:48.536Z,11.35
2019-04-07T01:14:49.021Z,11.27
2019-04-07T01:15:48.485Z,11.27
2019-04-07T01:16:48.412Z,11.27
2019-04-07T01:17:48.751Z,11.27
2019-04-07T01:18:48.344Z,11.28
2019-04-07T01:19:48.662Z,11.25
2019-04-07T01:20:48.420Z,11.28
2019-04-07T01:21:48.469Z,11.28
2019-04-07T01:22:48.561Z,11.22
2019-04-07T01:23:48.160Z,11.22
2019-04-07T01:24:48.445Z,11.19
2019-04-07T01:25:48.055Z,11.19
2019-04-07T01:26:48.177Z,11.22
2019-04-07T01:27:47.954Z,11.21
2019-04-07T01:28:48.236Z,11.28
2019-04-07T01:29:47.869Z,11.24
2019-04-07T01:30:48.020Z,11.36
2019-04-07T01:31:48.433Z,11.21
2019-04-07T01:32:47.792Z,11.22
2019-04-07T01:33:47.769Z,11.22
2019-04-07T01:34:47.669Z,11.27
2019-04-07T01:35:49.226Z,11.19
2019-04-07T01:36:48.030Z,11.22
2019-04-07T01:37:47.575Z,11.22
2019-04-07T01:38:47.519Z,11.25
2019-04-07T01:39:47.754Z,11.19
2019-04-07T01:40:47.703Z,11.27
2019-04-07T01:41:47.425Z,11.24
2019-04-07T01:42:47.378Z,11.27
2019-04-07T01:43:47.314Z,11.27
2019-04-07T01:44:47.336Z,11.32
2019-04-07T01:45:47.297Z,11.29
2019-04-07T01:46:47.209Z,11.36
2019-04-07T01:47:47.491Z,11.29
2019-04-07T01:48:47.085Z,11.33
2019-04-07T01:49:47.614Z,11.28
2019-04-07T01:50:47.006Z,11.43
2019-04-07T01:51:47.599Z,11.35
2019-04-07T01:52:47.043Z,11.32
2019-04-07T01:53:46.903Z,11.40
2019-04-07T01:54:47.247Z,11.39
2019-04-07T01:55:46.802Z,11.33
2019-04-07T01:56:46.804Z,11.39
2019-04-07T01:57:46.708Z,11.51
2019-04-07T01:58:47.004Z,11.58
2019-04-07T01:59:46.662Z,11.61
2019-04-07T02:00:46.646Z,11.61
2019-04-07T02:01:46.656Z,11.73
2019-04-07T02:02:46.684Z,11.79
2019-04-07T02:03:46.490Z,12.21
2019-04-07T02:04:46.459Z,12.42
2019-04-07T02:05:57.839Z,12.31
2019-04-07T02:06:46.407Z,12.31
2019-04-07T02:07:46.331Z,12.32
2019-04-07T02:08:46.378Z,12.32
2019-04-07T02:09:46.870Z,12.47
2019-04-07T02:10:46.209Z,12.37
2019-04-07T02:11:46.276Z,12.29
2019-04-07T02:12:46.643Z,12.42
2019-04-07T02:13:46.106Z,12.31
2019-04-07T02:14:46.651Z,12.56
2019-04-07T02:15:46.034Z,12.67
2019-04-07T02:16:46.517Z,12.64
2019-04-07T02:17:45.926Z,12.56
2019-04-07T02:18:46.562Z,12.41
2019-04-07T02:19:46.021Z,12.67
2019-04-07T02:20:45.795Z,12.85
2019-04-07T02:21:45.741Z,12.87
2019-04-07T02:22:45.698Z,13.01
2019-04-07T02:23:45.705Z,13.07
2019-04-07T02:24:45.637Z,13.04
2019-04-07T02:25:45.588Z,13.05
2019-04-07T02:26:45.617Z,13.00
2019-04-07T02:27:45.893Z,12.97
2019-04-07T02:28:46.193Z,12.83
2019-04-07T02:29:45.418Z,12.78
2019-04-07T02:30:45.949Z,13.03
2019-04-07T02:31:46.201Z,12.87
2019-04-07T02:32:46.091Z,12.86
2019-04-07T02:33:45.746Z,12.86
2019-04-07T02:34:45.518Z,12.77
2019-04-07T02:35:46.412Z,12.72
2019-04-07T02:36:45.132Z,12.77
2019-04-07T02:37:45.839Z,12.82
2019-04-07T02:38:45.631Z,12.78
2019-04-07T02:39:45.044Z,12.83
2019-04-07T02:40:45.863Z,12.95
2019-04-07T02:41:44.951Z,12.96
2019-04-07T02:42:44.877Z,12.93
2019-04-07T02:43:44.825Z,12.85
2019-04-07T02:44:45.234Z,12.87
2019-04-07T02:45:45.248Z,12.74
2019-04-07T02:46:44.724Z,12.68
2019-04-07T02:47:44.704Z,12.53
2019-04-07T02:48:44.706Z,12.39
2019-04-07T02:49:45.634Z,12.39
2019-04-07T02:50:45.229Z,12.27
2019-04-07T02:51:45.415Z,12.16
2019-04-07T02:52:45.227Z,12.04
2019-04-07T02:53:44.439Z,11.88
2019-04-07T02:54:44.548Z,11.95
2019-04-07T02:55:45.217Z,11.88
2019-04-07T02:56:45.041Z,11.69
2019-04-07T02:57:44.758Z,11.70
2019-04-07T02:58:44.421Z,11.55
2019-04-07T02:59:44.399Z,11.36
2019-04-07T03:00:44.525Z,11.37
2019-04-07T03:01:44.128Z,11.21
2019-04-07T03:02:44.058Z,11.11
2019-04-07T03:03:44.026Z,11.10
2019-04-07T03:04:44.457Z,11.03
2019-04-07T03:05:43.937Z,11.03
2019-04-07T03:06:49.729Z,11.03
2019-04-07T03:07:44.520Z,11.02
2019-04-07T03:08:44.073Z,10.86
2019-04-07T03:09:44.010Z,10.92
2019-04-07T03:10:44.169Z,10.88
2019-04-07T03:11:44.546Z,10.88
2019-04-07T03:12:43.648Z,10.88
2019-04-07T03:13:43.649Z,10.84
2019-04-07T03:14:43.566Z,10.84
2019-04-07T03:15:44.231Z,10.79
2019-04-07T03:16:43.768Z,10.71
2019-04-07T03:17:43.677Z,10.82
2019-04-07T03:18:44.293Z,10.70
2019-04-07T03:19:43.381Z,10.64
2019-04-07T03:20:43.526Z,10.70
2019-04-07T03:21:43.290Z,10.66
2019-04-07T03:22:43.890Z,10.66
2019-04-07T03:23:44.004Z,10.66
2019-04-07T03:24:43.172Z,10.63
2019-04-07T03:25:43.141Z,10.60
2019-04-07T03:26:43.083Z,10.63
2019-04-07T03:27:43.037Z,10.51
2019-04-07T03:28:43.739Z,10.51
2019-04-07T03:29:42.953Z,10.66
2019-04-07T03:30:44.487Z,10.73
2019-04-07T03:31:44.027Z,11.10
2019-04-07T03:32:45.784Z,11.43
2019-04-07T03:33:45.390Z,11.51
2019-04-07T03:34:44.453Z,11.57
2019-04-07T03:35:44.985Z,11.47
2019-04-07T03:37:11.658Z,11.54
2019-04-07T03:37:45.507Z,11.47
2019-04-07T03:38:42.922Z,11.43
2019-04-07T03:39:42.549Z,11.43
2019-04-07T03:40:42.959Z,11.44
2019-04-07T03:41:42.496Z,11.33
2019-04-07T03:42:42.385Z,11.18
2019-04-07T03:43:42.731Z,11.17
2019-04-07T03:44:42.818Z,11.04
2019-04-07T03:45:42.264Z,11.02
2019-04-07T03:46:42.930Z,10.85
2019-04-07T03:47:42.224Z,10.79
2019-04-07T03:48:42.156Z,10.74
2019-04-07T03:49:42.119Z,10.63
2019-04-07T03:50:43.025Z,10.56
2019-04-07T03:51:42.069Z,10.60
2019-04-07T03:52:42.913Z,10.47
2019-04-07T03:53:42.202Z,10.42
2019-04-07T03:54:41.894Z,10.30
2019-04-07T03:55:42.390Z,10.33
2019-04-07T03:56:41.803Z,10.29
2019-04-07T03:57:41.791Z,10.25
2019-04-07T03:58:41.737Z,10.34
2019-04-07T03:59:42.454Z,10.12
2019-04-07T04:00:42.264Z,10.17
2019-04-07T04:01:41.705Z,10.08
2019-04-07T04:02:41.559Z,10.11
2019-04-07T04:03:41.524Z,10.02
2019-04-07T04:04:41.611Z,10.05
2019-04-07T04:05:41.471Z,9.84
2019-04-07T04:06:42.027Z,9.94
2019-04-07T04:07:41.844Z,9.84
2019-04-07T04:08:41.722Z,9.86
2019-04-07T04:09:42.746Z,9.81
2019-04-07T04:10:41.208Z,9.72
2019-04-07T04:11:41.176Z,9.74
2019-04-07T04:12:41.736Z,9.69
2019-04-07T04:13:41.228Z,9.65
2019-04-07T04:14:41.091Z,9.68
2019-04-07T04:15:41.544Z,9.64
2019-04-07T04:16:40.975Z,9.56
2019-04-07T04:17:41.307Z,9.60
2019-04-07T04:18:40.935Z,9.61
2019-04-07T04:19:40.878Z,9.50
2019-04-07T04:20:40.962Z,9.48
2019-04-07T04:21:40.752Z,9.51
2019-04-07T04:22:40.747Z,9.48
2019-04-07T04:23:43.025Z,9.47
2019-04-07T04:24:40.645Z,9.51
2019-04-07T04:25:40.753Z,9.56
2019-04-07T04:26:40.584Z,9.48
2019-04-07T04:27:40.529Z,9.38
2019-04-07T04:28:40.845Z,9.31
2019-04-07T04:29:41.431Z,9.36
2019-04-07T04:30:40.418Z,9.38
2019-04-07T04:31:40.613Z,9.40
2019-04-07T04:32:41.238Z,9.26
2019-04-07T04:33:40.604Z,9.26
2019-04-07T04:34:41.039Z,9.23
2019-04-07T04:35:40.931Z,9.20
2019-04-07T04:36:40.458Z,9.26
2019-04-07T04:37:47.543Z,9.20
2019-04-07T04:38:40.486Z,9.28
2019-04-07T04:39:40.904Z,9.29
2019-04-07T04:40:40.841Z,9.26
2019-04-07T04:41:40.469Z,9.14
2019-04-07T04:42:40.634Z,9.17
2019-04-07T04:43:40.407Z,9.14
2019-04-07T04:44:40.431Z,9.18
2019-04-07T04:45:40.578Z,9.11
2019-04-07T04:46:40.758Z,9.15
2019-04-07T04:47:40.626Z,9.18
2019-04-07T04:48:39.605Z,9.17
2019-04-07T04:49:40.370Z,9.01
2019-04-07T04:50:39.551Z,9.04
2019-04-07T04:51:40.942Z,8.96
2019-04-07T04:52:40.589Z,8.94
2019-04-07T04:53:39.443Z,8.92
2019-04-07T04:54:39.370Z,8.94
2019-04-07T04:55:40.345Z,8.96
2019-04-07T04:56:39.454Z,8.92
2019-04-07T04:57:39.280Z,8.89
2019-04-07T04:58:39.329Z,8.83
2019-04-07T04:59:40.125Z,8.80
2019-04-07T05:00:39.094Z,8.77
2019-04-07T05:01:39.728Z,8.87
2019-04-07T05:02:39.480Z,8.66
2019-04-07T05:03:38.978Z,8.71
2019-04-07T05:04:39.743Z,8.83
2019-04-07T05:05:39.628Z,8.80
2019-04-07T05:06:38.905Z,8.81
2019-04-07T05:07:49.784Z,8.79
2019-04-07T05:08:39.257Z,8.84
2019-04-07T05:09:44.306Z,8.84
2019-04-07T05:10:38.763Z,8.79
2019-04-07T05:11:38.651Z,8.86
2019-04-07T05:12:39.087Z,8.92
2019-04-07T05:13:38.576Z,8.91
2019-04-07T05:14:38.818Z,8.86
2019-04-07T05:15:39.000Z,8.95
2019-04-07T05:16:38.820Z,8.91
2019-04-07T05:17:38.917Z,8.91
2019-04-07T05:18:38.390Z,8.96
2019-04-07T05:19:38.892Z,8.95
2019-04-07T05:20:38.750Z,8.84
2019-04-07T05:21:38.238Z,8.98
2019-04-07T05:22:38.164Z,9.11
2019-04-07T05:23:38.510Z,9.13
2019-04-07T05:24:38.111Z,9.02
2019-04-07T05:25:38.051Z,9.11
2019-04-07T05:26:38.814Z,9.14
2019-04-07T05:27:38.262Z,9.11
2019-04-07T05:28:38.061Z,9.20
2019-04-07T05:29:37.946Z,9.23
2019-04-07T05:30:38.013Z,9.23
2019-04-07T05:31:38.532Z,9.24
2019-04-07T05:32:37.823Z,9.35
2019-04-07T05:33:37.697Z,9.40
2019-04-07T05:34:37.835Z,9.36
2019-04-07T05:35:37.983Z,9.48
2019-04-07T05:36:37.950Z,9.47
2019-04-07T05:37:37.516Z,9.46
2019-04-07T05:38:37.759Z,9.53
2019-04-07T05:39:37.490Z,9.47
2019-04-07T05:40:37.418Z,9.57
2019-04-07T05:41:37.448Z,9.56
2019-04-07T05:42:37.951Z,9.58
2019-04-07T05:43:38.103Z,9.64
2019-04-07T05:44:37.247Z,9.64
2019-04-07T05:45:37.669Z,9.72
2019-04-07T05:46:40.135Z,9.76
2019-04-07T05:47:37.494Z,9.87
2019-04-07T05:48:37.134Z,9.86
2019-04-07T05:49:37.752Z,9.99
2019-04-07T05:50:37.040Z,10.01
2019-04-07T05:51:37.096Z,10.09
2019-04-07T05:52:39.550Z,10.18
2019-04-07T05:53:36.867Z,10.32
2019-04-07T05:54:49.579Z,10.40
2019-04-07T05:55:37.338Z,10.53
2019-04-07T05:56:37.018Z,10.84
2019-04-07T05:57:36.691Z,11.36
2019-04-07T05:58:38.701Z,11.95
2019-04-07T05:59:36.596Z,12.54
2019-04-07T06:00:37.150Z,13.12
2019-04-07T06:01:36.709Z,13.67
2019-04-07T06:02:36.455Z,14.15
2019-04-07T06:03:41.244Z,14.62
2019-04-07T06:04:36.449Z,14.98
2019-04-07T06:05:36.886Z,15.35
2019-04-07T06:06:37.041Z,15.60
2019-04-07T06:07:37.109Z,15.75
2019-04-07T06:08:39.166Z,16.02
2019-04-07T06:09:36.223Z,16.14
2019-04-07T06:10:36.129Z,16.34
2019-04-07T06:11:36.243Z,16.45
2019-04-07T06:12:39.328Z,16.57
2019-04-07T06:13:36.014Z,16.67
2019-04-07T06:14:36.779Z,16.63
2019-04-07T06:15:35.927Z,16.76
2019-04-07T06:16:35.950Z,16.86
2019-04-07T06:17:36.704Z,16.97
2019-04-07T06:18:35.869Z,17.19
2019-04-07T06:19:40.553Z,17.49
2019-04-07T06:20:35.727Z,17.54
2019-04-07T06:21:35.697Z,17.54
2019-04-07T06:22:35.897Z,17.62
2019-04-07T06:23:36.335Z,17.66
2019-04-07T06:24:36.029Z,17.86
2019-04-07T06:25:40.832Z,17.90
2019-04-07T06:26:36.432Z,17.82
2019-04-07T06:27:35.803Z,17.93
2019-04-07T06:28:35.429Z,17.95
2019-04-07T06:29:35.544Z,18.00
2019-04-07T06:30:36.233Z,18.05
2019-04-07T06:31:35.311Z,18.15
2019-04-07T06:32:36.824Z,18.23
2019-04-07T06:33:38.104Z,18.20
2019-04-07T06:34:35.528Z,18.39
2019-04-07T06:35:35.644Z,18.55
2019-04-07T06:36:35.206Z,18.75
2019-04-07T06:37:35.083Z,18.94
2019-04-07T06:38:38.212Z,19.00
2019-04-07T06:39:35.211Z,19.00
2019-04-07T06:40:34.963Z,19.11
2019-04-07T06:41:34.934Z,19.46
2019-04-07T06:42:35.455Z,19.58
2019-04-07T06:43:37.137Z,19.54
2019-04-07T06:44:34.814Z,19.76
2019-04-07T06:45:35.079Z,19.73
2019-04-07T06:46:34.739Z,19.80
2019-04-07T06:47:35.282Z,19.86
2019-04-07T06:48:38.034Z,19.73
2019-04-07T06:49:34.634Z,19.73
2019-04-07T06:50:45.556Z,20.03
2019-04-07T06:51:34.748Z,20.35
2019-04-07T06:52:38.750Z,20.39
2019-04-07T06:53:34.868Z,20.95
2019-04-07T06:54:35.184Z,20.99
2019-04-07T06:55:35.233Z,20.84
2019-04-07T06:56:35.141Z,20.85
2019-04-07T06:57:36.120Z,21.52
2019-04-07T06:58:38.819Z,21.67
2019-04-07T06:59:34.409Z,21.71
2019-04-07T07:00:34.322Z,21.84
2019-04-07T07:01:34.864Z,21.75
2019-04-07T07:02:34.166Z,22.14
2019-04-07T07:03:37.553Z,22.22
2019-04-07T07:04:34.110Z,22.40
2019-04-07T07:05:35.393Z,22.18
2019-04-07T07:06:34.120Z,22.61
2019-04-07T07:07:34.627Z,22.64
2019-04-07T07:08:42.559Z,22.64
2019-04-07T07:09:33.939Z,22.61
2019-04-07T07:10:37.626Z,22.65
2019-04-07T07:11:35.405Z,22.60
2019-04-07T07:12:38.734Z,22.42
2019-04-07T07:13:36.345Z,22.18
2019-04-07T07:14:41.570Z,22.12
2019-04-07T07:15:34.535Z,22.06
2019-04-07T07:16:33.675Z,21.74
2019-04-07T07:17:34.388Z,21.50
2019-04-07T07:18:33.912Z,21.84
2019-04-07T07:19:33.598Z,21.88
2019-04-07T07:20:33.558Z,21.77
2019-04-07T07:21:36.524Z,21.49
2019-04-07T07:22:33.640Z,21.80
2019-04-07T07:23:33.571Z,22.28
2019-04-07T07:24:33.790Z,22.73
2019-04-07T07:25:34.799Z,22.39
2019-04-07T07:26:35.340Z,22.70
2019-04-07T07:27:33.867Z,22.37
2019-04-07T07:28:33.769Z,22.14
2019-04-07T07:29:33.799Z,22.15
2019-04-07T07:30:33.192Z,22.35
2019-04-07T07:31:33.559Z,22.57
2019-04-07T07:32:36.985Z,22.33
2019-04-07T07:33:33.433Z,21.94
2019-04-07T07:34:33.919Z,21.92
2019-04-07T07:35:33.440Z,21.79
2019-04-07T07:36:33.014Z,21.40
2019-04-07T07:37:33.366Z,21.21
2019-04-07T07:38:33.513Z,21.25
2019-04-07T07:39:32.890Z,21.22
2019-04-07T07:40:34.960Z,21.32
2019-04-07T07:41:32.855Z,21.50
2019-04-07T07:42:32.986Z,21.52
2019-04-07T07:43:32.765Z,21.53
2019-04-07T07:44:35.856Z,21.50
2019-04-07T07:45:33.000Z,22.09
2019-04-07T07:46:33.319Z,22.39
2019-04-07T07:47:32.750Z,22.47
2019-04-07T07:48:32.873Z,22.70
2019-04-07T07:49:35.176Z,22.80
2019-04-07T07:50:36.753Z,22.54
2019-04-07T07:51:32.508Z,22.65
2019-04-07T07:52:33.037Z,23.13
2019-04-07T07:53:32.935Z,23.42
2019-04-07T07:54:32.393Z,23.65
2019-04-07T07:55:35.942Z,23.46
2019-04-07T07:56:32.359Z,23.07
2019-04-07T07:57:32.678Z,23.20
2019-04-07T07:58:33.654Z,22.94
2019-04-07T07:59:37.639Z,23.35
2019-04-07T08:00:35.247Z,23.60
2019-04-07T08:01:32.265Z,23.42
2019-04-07T08:02:32.141Z,23.39
2019-04-07T08:03:32.110Z,23.61
2019-04-07T08:04:32.102Z,23.70
2019-04-07T08:05:33.446Z,24.09
2019-04-07T08:06:32.798Z,24.42
2019-04-07T08:07:32.005Z,24.57
2019-04-07T08:08:32.238Z,24.81
2019-04-07T08:09:31.925Z,24.00
2019-04-07T08:10:31.956Z,23.83
2019-04-07T08:11:34.413Z,23.94
2019-04-07T08:12:34.289Z,24.10
2019-04-07T08:13:32.483Z,23.95
2019-04-07T08:14:32.439Z,23.98
2019-04-07T08:15:33.219Z,23.95
2019-04-07T08:16:32.497Z,23.98
2019-04-07T08:17:33.858Z,23.90
2019-04-07T08:18:31.640Z,23.53
2019-04-07T08:19:31.822Z,23.35
2019-04-07T08:20:31.864Z,23.95
2019-04-07T08:21:31.640Z,24.60
2019-04-07T08:22:38.857Z,24.85
2019-04-07T08:23:31.504Z,24.50
2019-04-07T08:24:31.482Z,24.34
2019-04-07T08:25:31.412Z,24.22
2019-04-07T08:26:31.856Z,23.54
2019-04-07T08:27:32.286Z,23.60
2019-04-07T08:28:33.707Z,23.20
2019-04-07T08:29:31.315Z,23.46
2019-04-07T08:30:31.793Z,23.17
2019-04-07T08:31:31.546Z,22.70
2019-04-07T08:32:32.402Z,22.28
2019-04-07T08:33:31.165Z,22.51
2019-04-07T08:34:32.915Z,22.62
2019-04-07T08:35:35.658Z,22.61
2019-04-07T08:36:31.074Z,22.65
2019-04-07T08:37:31.193Z,23.00
2019-04-07T08:38:31.117Z,23.22
2019-04-07T08:39:33.571Z,23.38
2019-04-07T08:40:30.989Z,23.80
2019-04-07T08:41:31.265Z,23.75
2019-04-07T08:42:31.462Z,24.25
2019-04-07T08:43:30.853Z,23.93
2019-04-07T08:44:31.577Z,23.42
2019-04-07T08:45:32.713Z,23.02
2019-04-07T08:46:32.266Z,23.10
2019-04-07T08:47:31.254Z,23.27
2019-04-07T08:48:30.771Z,23.51
2019-04-07T08:49:32.752Z,23.91
2019-04-07T08:50:31.023Z,24.80
2019-04-07T08:51:32.456Z,25.42
2019-04-07T08:52:30.569Z,25.30
2019-04-07T08:53:30.609Z,25.10
2019-04-07T08:54:30.619Z,24.34
2019-04-07T08:55:30.935Z,24.50
2019-04-07T08:56:31.004Z,24.37
2019-04-07T08:57:32.112Z,24.28
2019-04-07T08:58:36.106Z,24.15
2019-04-07T08:59:30.368Z,23.94
2019-04-07T09:00:30.345Z,24.31
2019-04-07T09:01:31.454Z,24.21
2019-04-07T09:02:31.144Z,24.43
2019-04-07T09:03:30.328Z,24.15
2019-04-07T09:04:30.684Z,24.42
2019-04-07T09:05:31.220Z,24.34
2019-04-07T09:06:30.387Z,24.22
2019-04-07T09:07:31.013Z,24.32
2019-04-07T09:08:30.705Z,24.55
2019-04-07T09:09:34.171Z,24.15
2019-04-07T09:10:32.557Z,24.12
2019-04-07T09:11:30.399Z,24.15
2019-04-07T09:12:31.355Z,24.27
2019-04-07T09:13:33.140Z,24.78
2019-04-07T09:14:29.908Z,25.15
2019-04-07T09:15:29.877Z,25.55
2019-04-07T09:16:30.216Z,25.14
2019-04-07T09:17:35.524Z,24.98
2019-04-07T09:18:29.808Z,24.95
2019-04-07T09:19:29.921Z,24.67
2019-04-07T09:20:30.250Z,24.65
2019-04-07T09:21:38.697Z,24.64
2019-04-07T09:22:30.729Z,24.68
2019-04-07T09:23:29.663Z,24.47
2019-04-07T09:24:31.394Z,25.09
2019-04-07T09:25:31.887Z,25.14
2019-04-07T09:26:29.546Z,25.09
2019-04-07T09:27:30.046Z,25.00
2019-04-07T09:28:29.837Z,24.65
2019-04-07T09:29:30.364Z,24.52
2019-04-07T09:30:29.734Z,24.35
2019-04-07T09:31:29.412Z,24.08
2019-04-07T09:32:30.098Z,24.30
2019-04-07T09:33:29.800Z,24.68
2019-04-07T09:34:30.192Z,25.08
2019-04-07T09:35:29.792Z,25.58
2019-04-07T09:36:31.494Z,25.54
2019-04-07T09:37:29.219Z,25.62
2019-04-07T09:38:29.452Z,25.97
2019-04-07T09:39:32.649Z,26.25
2019-04-07T09:40:29.230Z,26.06
2019-04-07T09:41:29.811Z,25.54
2019-04-07T09:42:29.133Z,25.40
2019-04-07T09:43:30.591Z,25.46
2019-04-07T09:44:33.966Z,25.09
2019-04-07T09:45:29.673Z,25.52
2019-04-07T09:46:28.965Z,25.62
2019-04-07T09:47:29.216Z,25.51
2019-04-07T09:48:28.902Z,24.98
2019-04-07T09:49:28.866Z,24.98
2019-04-07T09:50:29.478Z,24.49
2019-04-07T09:51:28.826Z,24.37
2019-04-07T09:52:29.376Z,23.76
2019-04-07T09:53:28.760Z,24.20
2019-04-07T09:54:28.729Z,24.22
2019-04-07T09:55:28.774Z,24.64
2019-04-07T09:56:31.426Z,24.87
2019-04-07T09:57:28.633Z,24.24
2019-04-07T09:58:28.610Z,24.30
2019-04-07T09:59:28.578Z,24.58
2019-04-07T10:00:28.803Z,24.88
2019-04-07T10:01:29.592Z,24.90
2019-04-07T10:02:31.808Z,25.14
2019-04-07T10:03:28.455Z,25.46
2019-04-07T10:04:28.438Z,24.67
2019-04-07T10:05:30.785Z,22.98
2019-04-07T10:06:28.387Z,23.39
2019-04-07T10:07:28.402Z,24.16
2019-04-07T10:08:28.324Z,24.47
2019-04-07T10:09:28.385Z,24.80
2019-04-07T10:10:29.472Z,24.76
2019-04-07T10:11:28.508Z,24.35
2019-04-07T10:12:29.996Z,23.83
2019-04-07T10:13:28.551Z,23.68
2019-04-07T10:14:28.142Z,23.76
2019-04-07T10:15:28.115Z,23.53
2019-04-07T10:16:28.263Z,23.04
2019-04-07T10:17:28.908Z,22.73
2019-04-07T10:18:28.587Z,22.57
2019-04-07T10:19:28.301Z,22.62
2019-04-07T10:20:28.596Z,23.09
2019-04-07T10:21:28.074Z,22.91
2019-04-07T10:22:28.741Z,22.79
2019-04-07T10:23:27.849Z,23.15
2019-04-07T10:24:27.818Z,23.13
2019-04-07T10:25:28.985Z,23.16
2019-04-07T10:26:27.757Z,23.25
2019-04-07T10:27:28.451Z,23.47
2019-04-07T10:28:27.755Z,24.05
2019-04-07T10:29:27.652Z,24.35
2019-04-07T10:30:27.619Z,24.61
2019-04-07T10:31:28.339Z,24.95
2019-04-07T10:32:27.885Z,25.02
2019-04-07T10:33:27.536Z,24.96
2019-04-07T10:34:27.506Z,25.05
2019-04-07T10:35:28.245Z,25.00
2019-04-07T10:36:28.095Z,24.88
2019-04-07T10:37:27.438Z,24.49
2019-04-07T10:38:28.035Z,24.46
2019-04-07T10:39:27.560Z,24.34
2019-04-07T10:40:27.514Z,24.45
2019-04-07T10:41:27.287Z,24.64
2019-04-07T10:42:27.262Z,24.31
2019-04-07T10:43:27.251Z,23.51
2019-04-07T10:44:27.202Z,23.78
2019-04-07T10:45:27.171Z,23.76
2019-04-07T10:46:27.203Z,24.24
2019-04-07T10:47:27.106Z,24.09
2019-04-07T10:48:27.093Z,24.22
2019-04-07T10:49:27.427Z,24.18
2019-04-07T10:50:27.018Z,24.08
2019-04-07T10:51:27.422Z,23.65
2019-04-07T10:52:27.161Z,23.05
2019-04-07T10:53:27.297Z,23.60
2019-04-07T10:54:26.894Z,23.80
2019-04-07T10:55:27.512Z,23.80
2019-04-07T10:56:27.638Z,24.27
2019-04-07T10:57:26.810Z,23.97
2019-04-07T10:58:26.782Z,23.87
2019-04-07T10:59:26.814Z,24.35
2019-04-07T11:00:26.736Z,24.98
2019-04-07T11:01:26.756Z,25.32
2019-04-07T11:02:27.548Z,24.55
2019-04-07T11:03:27.285Z,24.62
2019-04-07T11:04:27.271Z,24.58
2019-04-07T11:05:26.562Z,24.34
2019-04-07T11:06:27.199Z,24.02
2019-04-07T11:07:26.678Z,23.91
2019-04-07T11:08:26.478Z,23.84
2019-04-07T11:09:26.628Z,24.20
2019-04-07T11:10:34.271Z,24.32
2019-04-07T11:11:26.670Z,24.37
2019-04-07T11:12:26.381Z,24.22
2019-04-07T11:13:26.326Z,24.65
2019-04-07T11:14:26.955Z,24.99
2019-04-07T11:15:26.988Z,24.96
2019-04-07T11:16:26.315Z,24.93
2019-04-07T11:17:27.209Z,24.50
2019-04-07T11:18:26.579Z,24.08
2019-04-07T11:19:28.433Z,24.12
2019-04-07T11:20:26.831Z,24.34
2019-04-07T11:21:26.580Z,24.76
2019-04-07T11:22:26.613Z,25.02
2019-04-07T11:23:26.179Z,24.32
2019-04-07T11:24:26.453Z,23.79
2019-04-07T11:25:26.216Z,23.47
2019-04-07T11:26:25.946Z,23.38
2019-04-07T11:27:26.524Z,23.48
2019-04-07T11:28:28.705Z,23.91
2019-04-07T11:29:25.863Z,23.98
2019-04-07T11:30:27.220Z,24.03
2019-04-07T11:31:26.596Z,23.39
2019-04-07T11:32:26.120Z,23.51
2019-04-07T11:33:25.767Z,23.87
2019-04-07T11:34:25.708Z,23.93
2019-04-07T11:35:28.701Z,23.75
2019-04-07T11:36:25.683Z,23.35
2019-04-07T11:37:26.278Z,23.16
2019-04-07T11:38:25.648Z,22.98
2019-04-07T11:39:26.319Z,22.97
2019-04-07T11:40:27.025Z,22.90
2019-04-07T11:41:27.479Z,22.58
2019-04-07T11:42:25.469Z,22.35
2019-04-07T11:43:25.511Z,22.00
2019-04-07T11:44:25.413Z,21.74
2019-04-07T11:45:25.440Z,21.64
2019-04-07T11:46:26.222Z,21.46
2019-04-07T11:47:25.346Z,21.31
2019-04-07T11:48:25.917Z,21.19
2019-04-07T11:49:25.266Z,21.06
2019-04-07T11:50:25.243Z,20.82
2019-04-07T11:51:26.036Z,20.84
2019-04-07T11:52:25.151Z,20.84
2019-04-07T11:53:25.240Z,20.84
2019-04-07T11:54:25.229Z,20.97
2019-04-07T11:55:26.825Z,21.16
2019-04-07T11:56:25.108Z,21.47
2019-04-07T11:57:25.811Z,21.99
2019-04-07T11:58:31.372Z,22.22
2019-04-07T11:59:24.922Z,22.21
2019-04-07T12:00:25.115Z,22.31
2019-04-07T12:01:24.889Z,22.35
2019-04-07T12:02:24.842Z,22.39
2019-04-07T12:03:27.557Z,22.64
2019-04-07T12:04:25.193Z,22.95
2019-04-07T12:05:25.103Z,23.04
2019-04-07T12:06:25.506Z,22.68
2019-04-07T12:07:25.105Z,22.70
2019-04-07T12:08:28.173Z,23.02
2019-04-07T12:09:24.588Z,23.05
2019-04-07T12:10:24.567Z,23.19
2019-04-07T12:11:24.633Z,22.92
2019-04-07T12:12:24.638Z,23.01
2019-04-07T12:13:24.473Z,22.92
2019-04-07T12:14:24.497Z,22.51
2019-04-07T12:15:26.934Z,22.67
2019-04-07T12:16:26.644Z,22.76
2019-04-07T12:17:24.531Z,22.64
2019-04-07T12:18:24.307Z,22.70
2019-04-07T12:19:24.986Z,22.88
2019-04-07T12:20:26.994Z,22.79
2019-04-07T12:21:25.573Z,22.64
2019-04-07T12:22:24.949Z,22.51
2019-04-07T12:23:26.467Z,22.21
2019-04-07T12:24:27.352Z,22.18
2019-04-07T12:25:24.099Z,22.46
2019-04-07T12:26:24.715Z,22.58
2019-04-07T12:27:24.121Z,22.65
2019-04-07T12:28:24.659Z,22.70
2019-04-07T12:29:24.417Z,22.90
2019-04-07T12:30:23.922Z,23.00
2019-04-07T12:31:23.944Z,22.80
2019-04-07T12:32:23.960Z,22.77
2019-04-07T12:33:23.837Z,22.31
2019-04-07T12:34:23.806Z,22.39
2019-04-07T12:35:23.789Z,22.43
2019-04-07T12:36:30.217Z,22.57
2019-04-07T12:37:23.817Z,22.37
2019-04-07T12:38:23.672Z,22.49
2019-04-07T12:39:23.709Z,22.57
2019-04-07T12:40:23.977Z,22.62
2019-04-07T12:41:24.438Z,22.91
2019-04-07T12:42:23.572Z,22.82
2019-04-07T12:43:23.524Z,22.73
2019-04-07T12:44:23.495Z,22.88
2019-04-07T12:45:23.593Z,23.09
2019-04-07T12:46:23.459Z,22.85
2019-04-07T12:47:23.708Z,22.92
2019-04-07T12:48:23.365Z,23.05
2019-04-07T12:49:24.215Z,23.02
2019-04-07T12:50:24.053Z,23.01
2019-04-07T12:51:23.512Z,22.60
2019-04-07T12:52:26.194Z,22.60
2019-04-07T12:53:23.689Z,22.62
2019-04-07T12:54:23.394Z,22.68
2019-04-07T12:55:23.276Z,22.70
2019-04-07T12:56:23.171Z,22.82